createdAt,value
2018-09-01T11:27:19.027Z,18.10
2018-09-01T11:29:47.320Z,20.70
2018-09-01T11:32:15.648Z,20.60
2018-09-01T11:34:43.952Z,20.60
2018-09-01T11:37:12.316Z,20.70
2018-09-01T11:39:40.647Z,20.70
2018-09-01T11:42:08.933Z,20.60
2018-09-01T11:44:37.506Z,20.70
2018-09-01T11:47:05.830Z,20.60
2018-09-01T11:49:34.163Z,20.50
2018-09-01T11:52:02.500Z,20.60
2018-09-01T11:54:30.830Z,20.80
2018-09-01T11:56:59.123Z,21.00
2018-09-01T11:59:27.472Z,21.00
2018-09-01T12:01:55.820Z,21.10
2018-09-01T12:04:24.233Z,21.10
2018-09-01T12:06:52.579Z,21.30
2018-09-01T12:09:20.943Z,21.50
2018-09-01T12:11:49.238Z,21.60
2018-09-01T12:14:17.576Z,21.70
2018-09-01T12:16:45.873Z,21.70
2018-09-01T12:19:14.201Z,21.70
2018-09-01T12:21:42.524Z,21.70
2018-09-01T12:24:10.851Z,21.80
2018-09-01T12:26:39.159Z,21.70
2018-09-01T12:29:07.487Z,21.60
2018-09-01T12:31:35.825Z,21.60
2018-09-01T12:34:04.208Z,21.50
2018-09-01T12:36:32.607Z,21.30
2018-09-01T12:39:00.917Z,21.10
2018-09-01T12:41:29.245Z,21.10
2018-09-01T12:43:57.604Z,21.20
2018-09-01T12:46:25.904Z,21.20
2018-09-01T12:48:54.207Z,21.20
2018-09-01T12:51:22.535Z,21.30
2018-09-01T12:53:50.836Z,21.10
2018-09-01T12:56:19.198Z,21.10
2018-09-01T12:58:47.520Z,21.00
2018-09-01T13:01:15.823Z,20.90
2018-09-01T13:03:44.136Z,20.70
2018-09-01T13:06:12.679Z,20.60
2018-09-01T13:08:41.249Z,20.50
2018-09-01T13:11:09.568Z,20.50
2018-09-01T13:13:37.844Z,20.50
2018-09-01T13:16:06.228Z,20.40
2018-09-01T13:18:34.552Z,20.20
2018-09-01T13:21:02.840Z,20.10
2018-09-01T13:23:31.172Z,20.10
2018-09-01T13:26:01.192Z,20.10
2018-09-01T13:28:29.518Z,20.20
2018-09-01T13:30:59.524Z,20.20
2018-09-01T13:33:27.828Z,20.20
2018-09-01T13:35:56.171Z,20.30
2018-09-01T13:38:24.504Z,20.30
2018-09-01T13:40:52.899Z,20.30
2018-09-01T13:43:21.247Z,20.40
2018-09-01T13:45:49.952Z,20.50
2018-09-01T13:48:18.338Z,20.40
2018-09-01T13:50:46.632Z,20.50
2018-09-01T13:53:16.061Z,20.70
2018-09-01T13:55:44.589Z,20.80
2018-09-01T13:58:13.096Z,20.80
2018-09-01T14:00:41.543Z,20.90
2018-09-01T14:03:09.849Z,21.00
2018-09-01T14:05:38.147Z,20.90
2018-09-01T14:08:06.436Z,20.90
2018-09-01T14:10:34.732Z,20.90
2018-09-01T14:13:03.539Z,20.90
2018-09-01T14:15:31.879Z,20.90
2018-09-01T14:18:00.279Z,20.80
2018-09-01T14:20:28.815Z,20.60
2018-09-01T14:22:57.141Z,20.70
2018-09-01T14:25:25.524Z,20.70
2018-09-01T14:27:53.853Z,20.80
2018-09-01T14:30:22.176Z,20.80
2018-09-01T14:32:50.597Z,20.70
2018-09-01T14:35:18.894Z,20.50
2018-09-01T14:37:47.172Z,20.50
2018-09-01T14:40:15.453Z,20.50
2018-09-01T14:42:43.798Z,20.50
2018-09-01T14:46:41.589Z,20.50
2018-09-01T14:49:09.863Z,20.60
2018-09-01T14:51:39.088Z,20.70
2018-09-01T14:54:07.431Z,20.60
2018-09-01T14:56:35.759Z,20.70
2018-09-01T14:59:04.105Z,20.80
2018-09-01T15:01:32.396Z,21.00
2018-09-01T15:04:00.729Z,21.10
2018-09-01T15:06:29.079Z,21.20
2018-09-01T15:08:57.368Z,21.30
2018-09-01T15:11:25.671Z,21.40
2018-09-01T15:13:54.141Z,21.40
2018-09-01T15:16:22.484Z,21.30
2018-09-01T15:18:51.067Z,21.20
2018-09-01T15:21:19.415Z,20.90
2018-09-01T15:23:47.733Z,20.90
2018-09-01T15:26:16.124Z,20.80
2018-09-01T15:28:44.456Z,20.80
2018-09-01T15:31:12.773Z,20.70
2018-09-01T15:33:41.079Z,20.70
2018-09-01T15:36:09.386Z,20.60
2018-09-01T15:38:37.704Z,20.50
2018-09-01T15:41:06.043Z,20.40
2018-09-01T15:43:34.343Z,20.40
2018-09-01T15:46:02.647Z,20.50
2018-09-01T15:48:30.991Z,20.40
2018-09-01T15:50:59.309Z,20.30
2018-09-01T15:53:27.620Z,20.30
2018-09-01T15:55:55.955Z,20.40
2018-09-01T15:58:24.263Z,20.40
2018-09-01T16:00:53.025Z,20.30
2018-09-01T16:03:21.400Z,20.20
2018-09-01T16:05:49.924Z,20.20
2018-09-01T16:08:18.343Z,20.10
2018-09-01T16:10:46.655Z,20.10
2018-09-01T16:13:15.134Z,20.10
2018-09-01T16:15:43.465Z,20.10
2018-09-01T16:18:11.780Z,20.10
2018-09-01T16:20:40.115Z,20.00
2018-09-01T16:23:08.419Z,19.90
2018-09-01T16:25:36.707Z,19.90
2018-09-01T16:28:05.133Z,19.90
2018-09-01T16:30:33.442Z,19.90
2018-09-01T16:33:01.740Z,20.00
2018-09-01T16:35:30.040Z,19.90
2018-09-01T16:37:58.367Z,19.80
2018-09-01T16:40:26.679Z,19.80
2018-09-01T16:42:54.999Z,19.90
2018-09-01T16:45:23.315Z,19.90
2018-09-01T16:47:51.611Z,20.00
2018-09-01T16:50:19.911Z,20.00
2018-09-01T16:52:48.225Z,19.90
2018-09-01T16:55:16.504Z,20.00
2018-09-01T16:57:44.788Z,20.00
2018-09-01T17:00:13.103Z,19.90
2018-09-01T17:02:41.416Z,19.90
2018-09-01T17:05:09.712Z,19.90
2018-09-01T17:07:37.983Z,19.90
2018-09-01T17:10:06.319Z,19.70
2018-09-01T17:12:35.021Z,19.70
2018-09-01T17:15:03.790Z,19.60
2018-09-01T17:17:32.140Z,19.60
2018-09-01T17:20:00.476Z,19.60
2018-09-01T17:22:28.795Z,19.60
2018-09-01T17:24:57.082Z,19.60
2018-09-01T17:27:25.375Z,19.50
2018-09-01T17:29:53.710Z,19.50
2018-09-01T17:32:22.041Z,19.40
2018-09-01T17:34:50.357Z,19.40
2018-09-01T17:37:18.672Z,19.40
2018-09-01T17:39:47.016Z,19.40
2018-09-01T17:42:15.318Z,19.50
2018-09-01T17:44:43.697Z,19.50
2018-09-01T17:47:12.043Z,19.50
2018-09-01T17:49:40.352Z,19.40
2018-09-01T17:52:08.667Z,19.30
2018-09-01T17:54:37.007Z,19.30
2018-09-01T17:57:05.338Z,19.20
2018-09-01T17:59:33.648Z,19.20
